Change the Weather History Date:

Friday, March 21, 2014

  Actual Average Record
Temperature  
Mean Temperature 44 °F -  
Max Temperature 57 °F 47 °F 73 °F (2012)
Min Temperature 31 °F 27 °F 0 °F (1951)
Degree Days  
Heating Degree Days 21    
Moisture  
Dew Point 30 °F    
Average Humidity 65    
Maximum Humidity 79    
Minimum Humidity 41    
Precipitation  
Precipitation 0.00 in - - ()
Sea Level Pressure  
Sea Level Pressure 29.87 in    
Wind  
Wind Speed 10 mph (South)    
Max Wind Speed 25 mph    
Max Gust Speed 33 mph    
Visibility 10 miles    
Events      
Averages and records for this station are not official NWS values.
T = Trace of Precipitation, MM = Missing Value Source: NWS Daily Summary

Daily Weather History Graph

Daily Weather History Graph

Search for Another Location

Airport or City:

Trip Planner

Search our weather history database for the weather conditions in past years. The results will help you decide how hot, cold, wet, or windy it might be!

Date:

Astronomy

Mar. 21, 2014 Rise Set
Actual Time 7:09 AM CDT 7:21 PM CDT
Civil Twilight 6:41 AM CDT 7:49 PM CDT
Nautical Twilight 6:08 AM CDT 8:22 PM CDT
Astronomical Twilight 5:35 AM CDT 8:55 PM CDT
Moon No Moon Rise 9:56 AM CDT (3/21)
Length of Visible Light 13h 07m
Length of Day
12h 11m
Waning Gibbous, 75% of the Moon is Illuminated
Mar 21
Waning Gibbous
Mar 23
Last Quarter
Mar 30
New
Apr 7
First Quarter
Apr 15
Full

Hourly Weather History & Observations

Time (CDT) Temp. Windchill Dew Point Humidity Pressure Visibility Wind Dir Wind Speed Gust Speed Precip Events Conditions
12:15 AM 32.5 °F 26.2 °F 24.3 °F 72% 29.95 in 10.0 mi ESE 6.9 mph - N/A   Clear
12:35 AM 34.3 °F 27.7 °F 25.9 °F 71% 29.95 in 10.0 mi ESE 8.1 mph - N/A   Clear
12:55 AM 33.3 °F 26.4 °F 24.8 °F 71% 29.94 in 10.0 mi ESE 8.1 mph - N/A   Clear
1:15 AM 32.0 °F 24.8 °F 23.5 °F 71% 29.94 in 10.0 mi ESE 8.1 mph - N/A   Clear
1:35 AM 32.0 °F 24.8 °F 23.7 °F 71% 29.94 in 10.0 mi ESE 8.1 mph - N/A   Clear
1:55 AM 32.0 °F 28.7 °F 24.1 °F 73% 29.93 in 10.0 mi SE 3.5 mph - N/A   Clear
2:15 AM 32.0 °F 25.6 °F 24.3 °F 73% 29.93 in 10.0 mi ESE 6.9 mph - N/A   Clear
2:35 AM 32.0 °F 25.6 °F 24.6 °F 74% 29.92 in 10.0 mi ESE 6.9 mph - N/A   Clear
2:55 AM 32.0 °F 25.6 °F 25.3 °F 76% 29.90 in 10.0 mi ESE 6.9 mph - N/A   Clear
3:15 AM 31.6 °F 24.4 °F 25.2 °F 77% 29.89 in 10.0 mi ESE 8.1 mph - N/A   Clear
3:35 AM 31.1 °F 23.7 °F 24.8 °F 77% 29.88 in 10.0 mi SE 8.1 mph - N/A   Clear
3:55 AM 32.0 °F 25.6 °F 25.7 °F 78% 29.87 in 10.0 mi SE 6.9 mph - N/A   Clear
4:15 AM 32.0 °F 27.5 °F 24.8 °F 75% 29.87 in 10.0 mi ESE 4.6 mph - N/A   Clear
4:35 AM 32.0 °F 28.7 °F 24.8 °F 75% 29.87 in 10.0 mi SSE 3.5 mph - N/A   Clear
4:55 AM 34.3 °F 28.4 °F 27.0 °F 74% 29.86 in 10.0 mi SE 6.9 mph - N/A   Clear
5:15 AM 34.3 °F 29.2 °F 27.1 °F 75% 29.85 in 10.0 mi ESE 5.8 mph - N/A   Clear
5:35 AM 34.2 °F 28.2 °F 27.0 °F 75% 29.86 in 10.0 mi SSE 6.9 mph - N/A   Clear
5:55 AM 34.3 °F 27.7 °F 27.1 °F 75% 29.86 in 10.0 mi SSE 8.1 mph - N/A   Clear
6:15 AM 32.0 °F 25.6 °F 25.2 °F 76% 29.86 in 10.0 mi SSE 6.9 mph - N/A   Clear
6:35 AM 32.0 °F 25.6 °F 25.3 °F 76% 29.85 in 10.0 mi SE 6.9 mph - N/A   Clear
6:55 AM 32.0 °F 24.2 °F 26.1 °F 79% 29.84 in 10.0 mi SE 9.2 mph - N/A   Clear
7:15 AM 34.3 °F 28.4 °F 28.4 °F 79% 29.84 in 10.0 mi SE 6.9 mph - N/A   Clear
7:35 AM 34.3 °F 27.0 °F 27.9 °F 77% 29.84 in 10.0 mi SSE 9.2 mph - N/A   Clear
7:55 AM 34.3 °F 26.5 °F 27.5 °F 76% 29.83 in 10.0 mi SE 10.4 mph - N/A   Clear
8:15 AM 35.8 °F 27.8 °F 28.8 °F 76% 29.83 in 10.0 mi SSE 11.5 mph - N/A   Clear
8:35 AM 36.9 °F 30.1 °F 29.3 °F 74% 29.82 in 10.0 mi SE 9.2 mph - N/A   Clear
8:55 AM 37.4 °F 29.8 °F 29.5 °F 73% 29.83 in 10.0 mi SE 11.5 mph 16.1 mph N/A   Clear
9:15 AM 39.4 °F 32.3 °F 30.7 °F 71% 29.83 in 10.0 mi SSE 11.5 mph - N/A   Clear
9:35 AM 39.4 °F 33.2 °F 29.7 °F 68% 29.82 in 10.0 mi SE 9.2 mph - N/A   Clear
9:55 AM 40.6 °F 34.3 °F 29.8 °F 65% 29.81 in 10.0 mi SSE 10.4 mph - N/A   Clear
10:15 AM 41.9 °F 35.4 °F 29.8 °F 62% 29.80 in 10.0 mi SE 11.5 mph - N/A   Clear
10:35 AM 43.7 °F 37.7 °F 30.2 °F 59% 29.80 in 10.0 mi SSE 11.5 mph - N/A   Clear
10:55 AM 46.8 °F - 32.0 °F 57% 29.79 in 10.0 mi SSE 13.8 mph - N/A   Clear
11:15 AM 49.5 °F - 33.3 °F 54% 29.80 in 10.0 mi South 13.8 mph 18.4 mph N/A   Clear
11:35 AM 49.5 °F - 33.8 °F 55% 29.79 in 10.0 mi South 9.2 mph - N/A   Clear
11:55 AM 49.5 °F - 33.6 °F 54% 29.78 in 10.0 mi South 10.4 mph - N/A   Clear
12:20 PM 50.9 °F - 33.4 °F 51% 29.77 in 10.0 mi South 12.7 mph - N/A   Clear
12:35 PM 52.0 °F - 34.0 °F 50% 29.77 in 10.0 mi SSW 11.5 mph - N/A   Clear
12:55 PM 52.0 °F - 34.2 °F 51% 29.78 in 10.0 mi SW 10.4 mph - N/A   Clear
1:15 PM 54.5 °F - 36.0 °F 50% 29.77 in 10.0 mi West 12.7 mph - N/A   Clear
1:35 PM 54.5 °F - 34.9 °F 48% 29.76 in 10.0 mi West 10.4 mph - N/A   Clear
1:55 PM 54.5 °F - 35.6 °F 49% 29.76 in 10.0 mi WNW 12.7 mph 16.1 mph N/A   Clear
2:15 PM 54.5 °F - 35.6 °F 49% 29.75 in 10.0 mi NW 13.8 mph 21.9 mph N/A   Clear
2:35 PM 54.5 °F - 36.7 °F 51% 29.76 in 10.0 mi NW 15.0 mph 19.6 mph N/A   Clear
2:55 PM 54.5 °F - 37.2 °F 52% 29.76 in 10.0 mi NW 13.8 mph 24.2 mph N/A   Clear
3:15 PM 54.5 °F - 36.7 °F 51% 29.77 in 10.0 mi NW 20.7 mph 25.3 mph N/A   Clear
3:35 PM 54.5 °F - 36.9 °F 51% 29.77 in 10.0 mi WNW 16.1 mph 23.0 mph N/A   Clear
3:55 PM 57.2 °F - 36.7 °F 46% 29.77 in 10.0 mi NW 12.7 mph 17.3 mph N/A   Scattered Clouds
4:15 PM 57.2 °F - 33.6 °F 41% 29.77 in 10.0 mi NNW 17.3 mph 25.3 mph N/A   Scattered Clouds
4:35 PM 54.5 °F - 32.0 °F 42% 29.77 in 10.0 mi NNW 16.1 mph 24.2 mph N/A   Scattered Clouds
4:55 PM 54.5 °F - 33.8 °F 46% 29.78 in 10.0 mi NW 13.8 mph 27.6 mph N/A   Scattered Clouds
5:15 PM 54.5 °F - 34.7 °F 47% 29.79 in 10.0 mi NW 17.3 mph 26.5 mph N/A   Clear
5:35 PM 53.2 °F - 34.2 °F 48% 29.80 in 10.0 mi NW 19.6 mph 29.9 mph N/A   Scattered Clouds
5:55 PM 54.5 °F - 37.9 °F 54% 29.82 in 10.0 mi NNW 21.9 mph 28.8 mph N/A   Scattered Clouds
6:15 PM 49.5 °F - 36.0 °F 60% 29.85 in 10.0 mi NW 25.3 mph 33.4 mph N/A   Mostly Cloudy
6:35 PM 46.9 °F - 34.7 °F 62% 29.87 in 10.0 mi NNW 12.7 mph 31.1 mph N/A   Scattered Clouds
6:55 PM 42.6 °F 34.9 °F 32.0 °F 66% 29.89 in 10.0 mi NW 16.1 mph 27.6 mph N/A   Mostly Cloudy
7:15 PM 40.6 °F 33.0 °F 31.8 °F 71% 29.91 in 10.0 mi NW 13.8 mph 26.5 mph N/A   Mostly Cloudy
7:35 PM 39.4 °F 30.1 °F 29.8 °F 69% 29.92 in 10.0 mi NNW 18.4 mph 28.8 mph N/A   Overcast
7:55 PM 39.4 °F 30.4 °F 30.2 °F 70% 29.94 in 10.0 mi NW 17.3 mph 28.8 mph N/A   Overcast
8:15 PM 37.8 °F 28.6 °F 29.5 °F 72% 29.95 in 10.0 mi NW 16.1 mph 25.3 mph N/A   Overcast
8:35 PM 36.9 °F 26.5 °F 28.4 °F 71% 29.96 in 10.0 mi NW 19.6 mph 27.6 mph N/A   Overcast
8:55 PM 36.9 °F 27.5 °F 28.2 °F 71% 29.98 in 10.0 mi NNW 16.1 mph 25.3 mph N/A   Mostly Cloudy
9:15 PM 36.9 °F 26.5 °F 27.3 °F 68% 29.99 in 10.0 mi NNW 19.6 mph 25.3 mph N/A   Mostly Cloudy
9:35 PM 36.9 °F 27.5 °F 27.1 °F 68% 30.00 in 10.0 mi NNW 16.1 mph 27.6 mph N/A   Mostly Cloudy
9:55 PM 36.9 °F 27.1 °F 27.3 °F 68% 30.01 in 10.0 mi NW 17.3 mph 27.6 mph N/A   Overcast
10:15 PM 36.0 °F 26.3 °F 27.0 °F 70% 30.02 in 10.0 mi NW 16.1 mph 23.0 mph N/A   Overcast
10:35 PM 35.6 °F 26.6 °F 26.4 °F 69% 30.03 in 10.0 mi NNW 13.8 mph 21.9 mph N/A   Mostly Cloudy
10:55 PM 34.3 °F 25.0 °F 25.5 °F 70% 30.04 in 10.0 mi NW 13.8 mph 20.7 mph N/A   Overcast
11:15 PM 34.3 °F 24.2 °F 25.2 °F 69% 30.05 in 10.0 mi NW 16.1 mph - N/A   Mostly Cloudy
11:35 PM 34.3 °F 25.0 °F 25.7 °F 71% 30.05 in 10.0 mi NNW 13.8 mph 19.6 mph N/A   Scattered Clouds
11:55 PM 34.3 °F 24.2 °F 26.2 °F 72% 30.06 in 10.0 mi NW 16.1 mph 23.0 mph N/A   Mostly Cloudy